Svend Maersk — OYJS2 — position and weather

sailwx.info

Track history (hours):
 
Tides and Currents Weather Stations Pressure Air Temp Water Temp Dewpoint Dewpoint Depression Visibility Wind Speed Wind Dir Waves Ship Positions

Svend Maersk

Last reported at 2015-Feb-17 05:10 UTC. Time now 2015-Mar-05 08:11 UTC.
Position N 36°42' W 131°34'.
Warning: this ship's position is 16 days out of date.

Type: Ship (hazmat cat A). MMSI: 219791000.

Date/timePositionNaut miles runAvg speedWind from/ knotsBaromVisibWave heightAir tempDewpointWater temp
2015-Feb-17 05:10N 36°42' W 131°34'4611.5
2015-Feb-17 01:11N 36°15' W 130°47'711.6
2015-Feb-17 00:33N 36°11' W 130°39'1211.9
2015-Feb-16 23:30N 36°03' W 130°27'5111.8
2015-Feb-16 19:11N 35°33' W 129°36'711.7
2015-Feb-16 18:33N 35°29' W 129°29'1211.7
2015-Feb-16 17:33N 35°22' W 129°17'2411.5
2015-Feb-16 15:31N 35°08' W 128°54'1111.6
2015-Feb-16 14:33N 35°01' W 128°43'1211.6
2015-Feb-16 13:33N 34°54' W 128°32'1511.6
2015-Feb-16 12:17N 34°46' W 128°17'911.7
2015-Feb-16 11:31N 34°40' W 128°09'1111.6
2015-Feb-16 10:33N 34°33' W 127°58'1211.4
2015-Feb-16 09:32N 34°26' W 127°47'1111.7
2015-Feb-16 08:33N 34°20' W 127°35'1211.7
2015-Feb-16 07:33N 34°12' W 127°24'1211.8
2015-Feb-16 06:33N 34°05' W 127°13'1211.8
2015-Feb-16 05:33N 33°58' W 127°02'1211.7
2015-Feb-16 04:33N 33°51' W 126°51'1111.4
2015-Feb-16 03:33N 33°44' W 126°40'1111.3
2015-Feb-16 02:33N 33°37' W 126°29'1111.4
2015-Feb-16 01:33N 33°30' W 126°18'1211.7
2015-Feb-16 00:33N 33°23' W 126°07'1211.8
2015-Feb-15 23:33N 33°15' W 125°56'1211.7
2015-Feb-15 22:33N 33°08' W 125°45'1211.7
2015-Feb-15 21:33N 33°01' W 125°34'1211.6
2015-Feb-15 20:33N 32°54' W 125°23'1211.6
2015-Feb-15 19:33N 32°46' W 125°13'1111.4
2015-Feb-15 18:33N 32°39' W 125°03'1211.6
2015-Feb-15 17:33N 32°32' W 124°52'1111.4
2015-Feb-15 16:33N 32°25' W 124°41'1111.4
2015-Feb-15 15:33N 32°17' W 124°31'1211.6
2015-Feb-15 14:33N 32°10' W 124°20'1111.4
2015-Feb-15 13:33N 32°03' W 124°09'1211.7
2015-Feb-15 12:33N 31°56' W 123°59'1111.4
2015-Feb-15 11:33N 31°48' W 123°48'1111.3
2015-Feb-15 10:33N 31°41' W 123°38'1211.6
2015-Feb-15 09:33N 31°33' W 123°28'1211.5
2015-Feb-15 08:33N 31°26' W 123°17'1111.4
2015-Feb-15 07:33N 31°19' W 123°07'1211.7
2015-Feb-15 06:33N 31°12' W 122°57'1211.8
2015-Feb-15 05:33N 31°04' W 122°46'1211.7
2015-Feb-15 04:33N 30°57' W 122°36'1111.5
2015-Feb-15 03:33N 30°49' W 122°26'1111.4
2015-Feb-15 02:33N 30°42' W 122°15'1211.4
2015-Feb-15 01:32N 30°34' W 122°05'1111.3
2015-Feb-15 00:33N 30°27' W 121°55'1111.0
2015-Feb-14 23:33N 30°20' W 121°46'10511.6
2015-Feb-14 14:30N 29°11' W 120°14'  
Track history (hours):
 
Tides and Currents Weather Stations Pressure Air Temp Water Temp Dewpoint Dewpoint Depression Visibility Wind Speed Wind Dir Waves Ship Positions

Svend Maersk

Last reported at 2015-Feb-17 05:10 UTC. Time now 2015-Mar-05 08:11 UTC.
Position N 36°42' W 131°34'.
Warning: this ship's position is 16 days out of date.

Type: Ship (hazmat cat A). MMSI: 219791000.

Date/timePositionNaut miles runAvg speedWind from/ knotsBaromVisibWave heightAir tempDewpointWater temp
2015-Feb-17 05:10N 36°42' W 131°34'4611.5
2015-Feb-17 01:11N 36°15' W 130°47'711.6
2015-Feb-17 00:33N 36°11' W 130°39'1211.9
2015-Feb-16 23:30N 36°03' W 130°27'5111.8
2015-Feb-16 19:11N 35°33' W 129°36'711.7
2015-Feb-16 18:33N 35°29' W 129°29'1211.7
2015-Feb-16 17:33N 35°22' W 129°17'2411.5
2015-Feb-16 15:31N 35°08' W 128°54'1111.6
2015-Feb-16 14:33N 35°01' W 128°43'1211.6
2015-Feb-16 13:33N 34°54' W 128°32'1511.6
2015-Feb-16 12:17N 34°46' W 128°17'911.7
2015-Feb-16 11:31N 34°40' W 128°09'1111.6
2015-Feb-16 10:33N 34°33' W 127°58'1211.4
2015-Feb-16 09:32N 34°26' W 127°47'1111.7
2015-Feb-16 08:33N 34°20' W 127°35'1211.7
2015-Feb-16 07:33N 34°12' W 127°24'1211.8
2015-Feb-16 06:33N 34°05' W 127°13'1211.8
2015-Feb-16 05:33N 33°58' W 127°02'1211.7
2015-Feb-16 04:33N 33°51' W 126°51'1111.4
2015-Feb-16 03:33N 33°44' W 126°40'1111.3
2015-Feb-16 02:33N 33°37' W 126°29'1111.4
2015-Feb-16 01:33N 33°30' W 126°18'1211.7
2015-Feb-16 00:33N 33°23' W 126°07'1211.8
2015-Feb-15 23:33N 33°15' W 125°56'1211.7
2015-Feb-15 22:33N 33°08' W 125°45'1211.7
2015-Feb-15 21:33N 33°01' W 125°34'1211.6
2015-Feb-15 20:33N 32°54' W 125°23'1211.6
2015-Feb-15 19:33N 32°46' W 125°13'1111.4
2015-Feb-15 18:33N 32°39' W 125°03'1211.6
2015-Feb-15 17:33N 32°32' W 124°52'1111.4
2015-Feb-15 16:33N 32°25' W 124°41'1111.4
2015-Feb-15 15:33N 32°17' W 124°31'1211.6
2015-Feb-15 14:33N 32°10' W 124°20'1111.4
2015-Feb-15 13:33N 32°03' W 124°09'1211.7
2015-Feb-15 12:33N 31°56' W 123°59'1111.4
2015-Feb-15 11:33N 31°48' W 123°48'1111.3
2015-Feb-15 10:33N 31°41' W 123°38'1211.6
2015-Feb-15 09:33N 31°33' W 123°28'1211.5
2015-Feb-15 08:33N 31°26' W 123°17'1111.4
2015-Feb-15 07:33N 31°19' W 123°07'1211.7
2015-Feb-15 06:33N 31°12' W 122°57'1211.8
2015-Feb-15 05:33N 31°04' W 122°46'1211.7
2015-Feb-15 04:33N 30°57' W 122°36'1111.5
2015-Feb-15 03:33N 30°49' W 122°26'1111.4
2015-Feb-15 02:33N 30°42' W 122°15'1211.4
2015-Feb-15 01:32N 30°34' W 122°05'1111.3
2015-Feb-15 00:33N 30°27' W 121°55'1111.0
2015-Feb-14 23:33N 30°20' W 121°46'10511.6
2015-Feb-14 14:30N 29°11' W 120°14'  

Dump ship's entire track history